Time,TemperatureF,DewpointF,PressureIn,WindDirection,WindDirectionDegrees,WindSpeedMPH,WindSpeedGustMPH,Humidity,HourlyPrecipIn,Conditions,Clouds,dailyrainin,SoftwareType,DateUTC
2013-01-04 00:03:00,18.5,1.2,25.69,NW,319,0.0,0.0,46,0.00,,---,0.00,VWS V13.01,2013-01-04 07:03:00,
2013-01-04 00:08:00,18.3,1.0,25.69,NW,319,0.0,0.0,46,0.00,,---,0.00,VWS V13.01,2013-01-04 07:08:00,
2013-01-04 00:13:00,18.0,0.7,25.69,NW,319,0.0,0.0,46,0.00,,---,0.00,VWS V13.01,2013-01-04 07:13:00,
2013-01-04 00:18:00,17.6,0.8,25.69,NW,319,0.0,0.0,47,0.00,,---,0.00,VWS V13.01,2013-01-04 07:18:00,
2013-01-04 00:23:00,17.4,0.6,25.69,NW,319,0.0,0.0,47,0.00,,---,0.00,VWS V13.01,2013-01-04 07:23:00,
2013-01-04 00:28:00,17.1,0.8,25.69,NW,319,0.0,0.0,48,0.00,,---,0.00,VWS V13.01,2013-01-04 07:28:00,
2013-01-04 00:33:00,16.7,0.4,25.69,NW,319,0.0,0.0,48,0.00,,---,0.00,VWS V13.01,2013-01-04 07:33:00,
2013-01-04 00:38:00,16.5,0.3,25.69,NW,319,0.0,0.0,48,0.00,,---,0.00,VWS V13.01,2013-01-04 07:38:00,
2013-01-04 00:43:00,16.3,0.5,25.69,NW,319,0.0,0.0,49,0.00,,---,0.00,VWS V13.01,2013-01-04 07:43:00,
2013-01-04 00:48:00,16.7,1.3,25.69,NW,319,0.0,0.0,50,0.00,,---,0.00,VWS V13.01,2013-01-04 07:48:00,
2013-01-04 00:53:00,16.5,0.7,25.69,NW,319,0.0,0.0,49,0.00,,---,0.00,VWS V13.01,2013-01-04 07:53:00,
2013-01-04 00:58:00,15.8,0.5,25.69,NW,319,0.0,0.0,50,0.00,,---,0.00,VWS V13.01,2013-01-04 07:58:00,
2013-01-04 01:03:00,15.4,0.6,25.69,NW,319,0.0,0.0,51,0.00,,---,0.00,VWS V13.01,2013-01-04 08:03:00,
2013-01-04 01:08:00,14.9,0.1,25.69,NW,319,0.0,0.0,51,0.00,,---,0.00,VWS V13.01,2013-01-04 08:08:00,
2013-01-04 01:13:00,14.5,0.1,25.69,NW,319,0.0,0.0,52,0.00,,---,0.00,VWS V13.01,2013-01-04 08:13:00,
2013-01-04 01:18:00,14.2,0.2,25.69,NW,319,0.0,0.0,53,0.00,,---,0.00,VWS V13.01,2013-01-04 08:18:00,
2013-01-04 01:23:00,14.4,0.8,25.69,NW,319,0.0,0.0,54,0.00,,---,0.00,VWS V13.01,2013-01-04 08:23:00,
2013-01-04 01:28:00,14.5,0.9,25.69,NW,319,0.0,0.0,54,0.00,,---,0.00,VWS V13.01,2013-01-04 08:28:00,
2013-01-04 01:33:00,14.4,0.8,25.69,NW,319,0.0,0.0,54,0.00,,---,0.00,VWS V13.01,2013-01-04 08:33:00,
2013-01-04 01:38:00,14.5,0.9,25.69,NW,319,0.0,0.0,54,0.00,,---,0.00,VWS V13.01,2013-01-04 08:38:00,
2013-01-04 01:43:00,14.9,0.5,25.69,NW,319,0.0,0.0,52,0.00,,---,0.00,VWS V13.01,2013-01-04 08:43:00,
2013-01-04 01:48:00,14.7,-0.1,25.69,NW,319,0.0,0.0,51,0.00,,---,0.00,VWS V13.01,2013-01-04 08:48:00,
2013-01-04 01:53:00,14.4,-0.4,25.69,NW,319,0.0,0.0,51,0.00,,---,0.00,VWS V13.01,2013-01-04 08:53:00,
2013-01-04 01:58:00,13.8,-0.5,25.69,NW,319,0.0,0.0,52,0.00,,---,0.00,VWS V13.01,2013-01-04 08:58:00,
2013-01-04 02:03:00,13.5,-0.9,25.69,NW,319,0.0,0.0,52,0.00,,---,0.00,VWS V13.01,2013-01-04 09:03:00,
2013-01-04 02:08:00,13.6,-0.7,25.69,NW,319,0.0,0.0,52,0.00,,---,0.00,VWS V13.01,2013-01-04 09:08:00,
2013-01-04 02:13:00,14.0,0.0,25.69,NW,319,0.0,0.0,53,0.00,,---,0.00,VWS V13.01,2013-01-04 09:13:00,
2013-01-04 02:18:00,13.8,-0.1,25.69,NW,319,0.0,0.0,53,0.00,,---,0.00,VWS V13.01,2013-01-04 09:18:00,
2013-01-04 02:23:00,13.6,-0.3,25.69,NW,319,0.0,0.0,53,0.00,,---,0.00,VWS V13.01,2013-01-04 09:23:00,
2013-01-04 02:28:00,14.0,0.0,25.69,NW,319,0.0,0.0,53,0.00,,---,0.00,VWS V13.01,2013-01-04 09:28:00,
2013-01-04 02:33:00,13.6,-0.7,25.69,NW,319,0.0,0.0,52,0.00,,---,0.00,VWS V13.01,2013-01-04 09:33:00,
2013-01-04 02:38:00,13.1,-1.2,25.69,NW,319,0.0,0.0,52,0.00,,---,0.00,VWS V13.01,2013-01-04 09:38:00,
2013-01-04 02:43:00,13.3,-1.0,25.69,NW,319,0.0,0.0,52,0.00,,---,0.00,VWS V13.01,2013-01-04 09:43:00,
2013-01-04 02:48:00,13.6,-0.7,25.69,NW,319,0.0,0.0,52,0.00,,---,0.00,VWS V13.01,2013-01-04 09:48:00,
2013-01-04 02:53:00,14.4,0.4,25.69,NW,319,0.0,0.0,53,0.00,,---,0.00,VWS V13.01,2013-01-04 09:53:00,
2013-01-04 02:58:00,14.4,-0.4,25.69,NW,319,0.0,0.0,51,0.00,,---,0.00,VWS V13.01,2013-01-04 09:58:00,
2013-01-04 03:03:00,14.4,-0.4,25.69,NW,319,0.0,0.0,51,0.00,,---,0.00,VWS V13.01,2013-01-04 10:03:00,
2013-01-04 03:08:00,14.2,-0.6,25.69,NW,319,0.0,0.0,51,0.00,,---,0.00,VWS V13.01,2013-01-04 10:08:00,
2013-01-04 03:13:00,13.8,-0.9,25.69,NW,319,0.0,0.0,51,0.00,,---,0.00,VWS V13.01,2013-01-04 10:13:00,
2013-01-04 03:18:00,14.0,-0.8,25.69,NW,319,0.0,0.0,51,0.00,,---,0.00,VWS V13.01,2013-01-04 10:18:00,
2013-01-04 03:23:00,13.8,-0.9,25.69,NW,319,0.0,0.0,51,0.00,,---,0.00,VWS V13.01,2013-01-04 10:23:00,
2013-01-04 03:28:00,14.2,-0.6,25.69,NW,319,0.0,0.0,51,0.00,,---,0.00,VWS V13.01,2013-01-04 10:28:00,
2013-01-04 03:33:00,14.4,-0.4,25.69,NW,319,0.0,0.0,51,0.00,,---,0.00,VWS V13.01,2013-01-04 10:33:00,
2013-01-04 03:38:00,14.4,-0.4,25.69,NW,319,0.0,0.0,51,0.00,,---,0.00,VWS V13.01,2013-01-04 10:38:00,
2013-01-04 03:43:00,14.7,-0.5,25.69,NW,319,0.0,0.0,50,0.00,,---,0.00,VWS V13.01,2013-01-04 10:43:00,
2013-01-04 03:48:00,14.9,-0.4,25.69,NW,319,0.0,0.0,50,0.00,,---,0.00,VWS V13.01,2013-01-04 10:48:00,
2013-01-04 03:53:00,15.3,-0.5,25.69,NW,319,0.0,0.0,49,0.00,,---,0.00,VWS V13.01,2013-01-04 10:53:00,
2013-01-04 03:58:00,15.4,-0.3,25.69,NW,319,0.0,0.0,49,0.00,,---,0.00,VWS V13.01,2013-01-04 10:58:00,
2013-01-04 04:03:00,15.6,-0.6,25.69,NW,319,0.0,0.0,48,0.00,,---,0.00,VWS V13.01,2013-01-04 11:03:00,
2013-01-04 04:08:00,16.0,-0.2,25.69,NW,319,0.0,0.0,48,0.00,,---,0.00,VWS V13.01,2013-01-04 11:08:00,
2013-01-04 04:13:00,16.3,-0.3,25.69,NW,319,0.0,0.0,47,0.00,,---,0.00,VWS V13.01,2013-01-04 11:13:00,
2013-01-04 04:18:00,16.3,-0.3,25.69,NW,319,0.0,0.0,47,0.00,,---,0.00,VWS V13.01,2013-01-04 11:18:00,
2013-01-04 04:23:00,16.5,-0.2,25.69,NW,319,0.0,0.0,47,0.00,,---,0.00,VWS V13.01,2013-01-04 11:23:00,
2013-01-04 04:28:00,16.5,-0.2,25.69,NW,319,0.0,0.0,47,0.00,,---,0.00,VWS V13.01,2013-01-04 11:28:00,
2013-01-04 04:33:00,16.5,-0.2,25.69,NW,319,0.0,0.0,47,0.00,,---,0.00,VWS V13.01,2013-01-04 11:33:00,
2013-01-04 04:38:00,16.7,0.0,25.69,NW,319,0.0,0.0,47,0.00,,---,0.00,VWS V13.01,2013-01-04 11:38:00,
2013-01-04 04:43:00,16.7,-0.5,25.69,NW,319,0.0,0.0,46,0.00,,---,0.00,VWS V13.01,2013-01-04 11:43:00,
2013-01-04 04:48:00,16.7,-0.5,25.69,NW,319,0.0,0.0,46,0.00,,---,0.00,VWS V13.01,2013-01-04 11:48:00,
2013-01-04 04:53:00,16.7,-0.5,25.69,NW,319,0.0,0.0,46,0.00,,---,0.00,VWS V13.01,2013-01-04 11:53:00,
2013-01-04 04:58:00,17.1,-0.1,25.69,NW,319,0.0,0.0,46,0.00,,---,0.00,VWS V13.01,2013-01-04 11:58:00,
2013-01-04 05:03:00,17.1,-0.1,25.69,NW,319,0.0,0.0,46,0.00,,---,0.00,VWS V13.01,2013-01-04 12:03:00,
2013-01-04 05:08:00,17.1,-0.1,25.69,NW,319,0.0,0.0,46,0.00,,---,0.00,VWS V13.01,2013-01-04 12:08:00,
2013-01-04 05:13:00,16.9,-0.3,25.69,NW,319,0.0,0.0,46,0.00,,---,0.00,VWS V13.01,2013-01-04 12:13:00,
2013-01-04 05:18:00,16.7,-0.5,25.69,NW,319,0.0,0.0,46,0.00,,---,0.00,VWS V13.01,2013-01-04 12:18:00,
2013-01-04 05:23:00,16.5,-0.6,25.69,NW,319,0.0,0.0,46,0.00,,---,0.00,VWS V13.01,2013-01-04 12:23:00,
2013-01-04 05:28:00,16.5,-0.6,25.69,NW,319,0.0,0.0,46,0.00,,---,0.00,VWS V13.01,2013-01-04 12:28:00,
2013-01-04 05:33:00,16.3,-0.8,25.69,NW,319,0.0,0.0,46,0.00,,---,0.00,VWS V13.01,2013-01-04 12:33:00,
2013-01-04 05:38:00,16.2,-1.0,25.69,NW,319,0.0,0.0,46,0.00,,---,0.00,VWS V13.01,2013-01-04 12:38:00,
2013-01-04 05:43:00,16.0,-1.1,25.69,NW,319,0.0,0.0,46,0.00,,---,0.00,VWS V13.01,2013-01-04 12:43:00,
2013-01-04 05:48:00,16.0,-0.7,25.69,NW,319,0.0,0.0,47,0.00,,---,0.00,VWS V13.01,2013-01-04 12:48:00,
2013-01-04 05:53:00,16.0,-0.7,25.69,NW,319,0.0,0.0,47,0.00,,---,0.00,VWS V13.01,2013-01-04 12:53:00,
2013-01-04 05:58:00,16.0,-0.7,25.69,NW,319,0.0,0.0,47,0.00,,---,0.00,VWS V13.01,2013-01-04 12:58:00,
2013-01-04 06:03:00,16.0,-0.7,25.69,NW,319,0.0,0.0,47,0.00,,---,0.00,VWS V13.01,2013-01-04 13:03:00,
2013-01-04 06:08:00,16.0,-0.7,25.69,NW,319,0.0,0.0,47,0.00,,---,0.00,VWS V13.01,2013-01-04 13:08:00,
2013-01-04 06:13:00,16.2,-0.5,25.69,NW,319,0.0,0.0,47,0.00,,---,0.00,VWS V13.01,2013-01-04 13:13:00,
2013-01-04 06:18:00,16.2,-0.5,25.66,NW,319,0.0,0.0,47,0.00,,---,0.00,VWS V13.01,2013-01-04 13:18:00,
2013-01-04 06:23:00,16.2,-0.5,25.66,NW,319,0.0,0.0,47,0.00,,---,0.00,VWS V13.01,2013-01-04 13:23:00,
2013-01-04 06:28:00,16.2,-0.5,25.66,NW,319,0.0,0.0,47,0.00,,---,0.00,VWS V13.01,2013-01-04 13:28:00,
2013-01-04 06:33:00,16.2,-0.5,25.66,NW,319,0.0,0.0,47,0.00,,---,0.00,VWS V13.01,2013-01-04 13:33:00,
2013-01-04 06:38:00,16.2,-0.5,25.66,NW,319,0.0,0.0,47,0.00,,---,0.00,VWS V13.01,2013-01-04 13:38:00,
2013-01-04 06:43:00,16.0,-0.7,25.66,NW,319,0.0,0.0,47,0.00,,---,0.00,VWS V13.01,2013-01-04 13:43:00,
2013-01-04 06:48:00,15.8,-0.9,25.66,NW,319,0.0,0.0,47,0.00,,---,0.00,VWS V13.01,2013-01-04 13:48:00,
2013-01-04 06:53:00,15.4,-1.2,25.66,NW,319,0.0,0.0,47,0.00,,---,0.00,VWS V13.01,2013-01-04 13:53:00,
2013-01-04 06:58:00,15.3,-0.9,25.66,NW,319,0.0,0.0,48,0.00,,---,0.00,VWS V13.01,2013-01-04 13:58:00,
2013-01-04 07:03:00,15.3,-0.9,25.66,NW,319,0.0,0.0,48,0.00,,---,0.00,VWS V13.01,2013-01-04 14:03:00,
2013-01-04 07:08:00,15.1,-1.1,25.66,NW,319,0.0,0.0,48,0.00,,---,0.00,VWS V13.01,2013-01-04 14:08:00,
2013-01-04 07:13:00,15.3,-0.9,25.66,NW,319,0.0,0.0,48,0.00,,---,0.00,VWS V13.01,2013-01-04 14:13:00,
2013-01-04 07:18:00,15.1,-1.1,25.66,NW,319,0.0,0.0,48,0.00,,---,0.00,VWS V13.01,2013-01-04 14:18:00,
2013-01-04 07:23:00,14.9,-0.8,25.66,NW,319,0.0,0.0,49,0.00,,---,0.00,VWS V13.01,2013-01-04 14:23:00,
2013-01-04 07:28:00,15.1,-0.6,25.66,NW,319,0.0,0.0,49,0.00,,---,0.00,VWS V13.01,2013-01-04 14:28:00,
2013-01-04 07:33:00,15.3,-0.5,25.66,NW,319,0.0,0.0,49,0.00,,---,0.00,VWS V13.01,2013-01-04 14:33:00,
2013-01-04 07:38:00,15.1,-0.6,25.66,NW,319,0.0,0.0,49,0.00,,---,0.00,VWS V13.01,2013-01-04 14:38:00,
2013-01-04 07:43:00,14.9,-0.8,25.66,NW,319,0.0,0.0,49,0.00,,---,0.00,VWS V13.01,2013-01-04 14:43:00,
2013-01-04 07:48:00,15.1,-0.6,25.66,NW,319,0.0,0.0,49,0.00,,---,0.00,VWS V13.01,2013-01-04 14:48:00,
2013-01-04 07:53:00,15.1,-0.6,25.66,NW,319,0.0,0.0,49,0.00,,---,0.00,VWS V13.01,2013-01-04 14:53:00,
2013-01-04 07:58:00,15.8,-0.4,25.66,NW,319,0.0,0.0,48,0.00,,---,0.00,VWS V13.01,2013-01-04 14:58:00,
2013-01-04 08:03:00,16.2,-0.1,25.66,NW,319,0.0,0.0,48,0.00,,---,0.00,VWS V13.01,2013-01-04 15:03:00,
2013-01-04 08:08:00,17.2,0.5,25.66,NW,319,0.0,0.0,47,0.00,,---,0.00,VWS V13.01,2013-01-04 15:08:00,
2013-01-04 08:13:00,17.6,0.3,25.66,NW,319,0.0,0.0,46,0.00,,---,0.00,VWS V13.01,2013-01-04 15:13:00,
2013-01-04 08:18:00,17.1,-0.1,25.66,NW,319,0.0,0.0,46,0.00,,---,0.00,VWS V13.01,2013-01-04 15:18:00,
2013-01-04 08:23:00,17.2,0.0,25.66,NW,319,0.0,0.0,46,0.00,,---,0.00,VWS V13.01,2013-01-04 15:23:00,
2013-01-04 08:28:00,17.6,0.3,25.66,NW,319,0.0,0.0,46,0.00,,---,0.00,VWS V13.01,2013-01-04 15:28:00,
2013-01-04 08:33:00,18.3,0.6,25.66,NW,319,0.0,0.0,45,0.00,,---,0.00,VWS V13.01,2013-01-04 15:33:00,
2013-01-04 08:38:00,19.0,1.2,25.66,NW,319,0.0,0.0,45,0.00,,---,0.00,VWS V13.01,2013-01-04 15:38:00,
2013-01-04 08:43:00,19.4,1.5,25.66,NW,319,0.0,0.0,45,0.00,,---,0.00,VWS V13.01,2013-01-04 15:43:00,
2013-01-04 08:48:00,20.3,1.9,25.66,NW,319,0.0,0.0,44,0.00,,---,0.00,VWS V13.01,2013-01-04 15:48:00,
2013-01-04 08:53:00,20.8,2.4,25.66,NW,319,0.0,0.0,44,0.00,,---,0.00,VWS V13.01,2013-01-04 15:53:00,
2013-01-04 08:58:00,21.2,2.2,25.66,NW,319,0.0,0.0,43,0.00,,---,0.00,VWS V13.01,2013-01-04 15:58:00,
2013-01-04 09:03:00,21.2,2.2,25.66,NW,319,0.0,0.0,43,0.00,,---,0.00,VWS V13.01,2013-01-04 16:03:00,
2013-01-04 09:08:00,21.4,2.4,25.66,NW,319,0.0,0.0,43,0.00,,---,0.00,VWS V13.01,2013-01-04 16:08:00,
2013-01-04 09:13:00,22.8,3.7,25.66,NW,319,0.0,0.0,43,0.00,,---,0.00,VWS V13.01,2013-01-04 16:13:00,
2013-01-04 09:18:00,24.1,4.3,25.66,NW,319,0.0,0.0,42,0.00,,---,0.00,VWS V13.01,2013-01-04 16:18:00,
2013-01-04 09:23:00,25.3,4.9,25.66,NW,319,0.0,0.0,41,0.00,,---,0.00,VWS V13.01,2013-01-04 16:23:00,
2013-01-04 09:28:00,26.1,5.6,25.66,NW,319,0.0,0.0,41,0.00,,---,0.00,VWS V13.01,2013-01-04 16:28:00,
2013-01-04 09:33:00,26.8,5.7,25.69,NW,319,0.0,0.0,40,0.00,,---,0.00,VWS V13.01,2013-01-04 16:33:00,
2013-01-04 09:38:00,27.3,6.2,25.69,NW,319,0.0,0.0,40,0.00,,---,0.00,VWS V13.01,2013-01-04 16:38:00,
2013-01-04 09:43:00,27.9,6.1,25.69,NW,319,0.0,0.0,39,0.00,,---,0.00,VWS V13.01,2013-01-04 16:43:00,
2013-01-04 09:48:00,28.0,6.3,25.66,NW,319,0.0,0.0,39,0.00,,---,0.00,VWS V13.01,2013-01-04 16:48:00,
2013-01-04 09:53:00,28.0,5.7,25.66,NW,319,0.0,0.0,38,0.00,,---,0.00,VWS V13.01,2013-01-04 16:53:00,
2013-01-04 09:58:00,28.6,6.2,25.66,NW,319,0.0,0.0,38,0.00,,---,0.00,VWS V13.01,2013-01-04 16:58:00,
2013-01-04 10:03:00,28.8,6.4,25.69,NW,319,0.0,0.0,38,0.00,,---,0.00,VWS V13.01,2013-01-04 17:03:00,
2013-01-04 10:08:00,29.7,7.2,25.69,NW,319,0.0,0.0,38,0.00,,---,0.00,VWS V13.01,2013-01-04 17:08:00,
2013-01-04 10:13:00,30.2,7.7,25.69,NW,319,0.0,0.0,38,0.00,,---,0.00,VWS V13.01,2013-01-04 17:13:00,
2013-01-04 10:18:00,30.9,8.3,25.66,NW,319,0.0,0.0,38,0.00,,---,0.00,VWS V13.01,2013-01-04 17:18:00,
2013-01-04 10:23:00,31.8,9.1,25.66,NW,319,0.0,0.0,38,0.00,,---,0.00,VWS V13.01,2013-01-04 17:23:00,
2013-01-04 10:28:00,32.4,9.0,25.66,NW,319,0.0,0.0,37,0.00,,---,0.00,VWS V13.01,2013-01-04 17:28:00,
2013-01-04 10:33:00,32.7,9.3,25.66,NW,319,0.0,0.0,37,0.00,,---,0.00,VWS V13.01,2013-01-04 17:33:00,
2013-01-04 10:38:00,33.3,9.8,25.66,NW,319,0.0,0.0,37,0.00,,---,0.00,VWS V13.01,2013-01-04 17:38:00,
2013-01-04 10:43:00,33.6,10.1,25.66,NW,319,0.0,0.0,37,0.00,,---,0.00,VWS V13.01,2013-01-04 17:43:00,
2013-01-04 10:48:00,34.3,10.2,25.66,NW,319,0.0,0.0,36,0.00,,---,0.00,VWS V13.01,2013-01-04 17:48:00,
2013-01-04 10:53:00,35.2,11.0,25.66,NW,319,0.0,0.0,36,0.00,,---,0.00,VWS V13.01,2013-01-04 17:53:00,
2013-01-04 10:58:00,35.6,11.3,25.66,NW,319,0.0,0.0,36,0.00,,---,0.00,VWS V13.01,2013-01-04 17:58:00,
2013-01-04 11:03:00,35.8,11.4,25.66,NW,319,0.0,0.0,36,0.00,,---,0.00,VWS V13.01,2013-01-04 18:03:00,
2013-01-04 11:08:00,36.3,11.3,25.66,NW,319,0.0,0.0,35,0.00,,---,0.00,VWS V13.01,2013-01-04 18:08:00,
2013-01-04 11:13:00,37.0,11.9,25.66,NW,319,0.0,0.0,35,0.00,,---,0.00,VWS V13.01,2013-01-04 18:13:00,
2013-01-04 11:18:00,37.4,12.3,25.66,NW,319,0.0,0.0,35,0.00,,---,0.00,VWS V13.01,2013-01-04 18:18:00,
2013-01-04 11:23:00,37.8,11.9,25.66,NW,319,0.0,0.0,34,0.00,,---,0.00,VWS V13.01,2013-01-04 18:23:00,
2013-01-04 11:28:00,38.3,12.4,25.66,NW,319,0.0,0.0,34,0.00,,---,0.00,VWS V13.01,2013-01-04 18:28:00,
2013-01-04 11:33:00,38.8,12.9,25.63,NW,319,0.0,0.0,34,0.00,,---,0.00,VWS V13.01,2013-01-04 18:33:00,
2013-01-04 11:38:00,39.4,12.7,25.63,NW,319,0.0,0.0,33,0.00,,---,0.00,VWS V13.01,2013-01-04 18:38:00,
2013-01-04 11:43:00,39.7,13.0,25.63,NW,319,0.0,0.0,33,0.00,,---,0.00,VWS V13.01,2013-01-04 18:43:00,
2013-01-04 11:48:00,40.5,12.9,25.63,NW,319,0.0,0.0,32,0.00,,---,0.00,VWS V13.01,2013-01-04 18:48:00,
2013-01-04 11:53:00,41.0,12.7,25.63,NW,319,0.0,0.0,31,0.00,,---,0.00,VWS V13.01,2013-01-04 18:53:00,
2013-01-04 11:58:00,41.7,13.3,25.63,NW,319,0.0,0.0,31,0.00,,---,0.00,VWS V13.01,2013-01-04 18:58:00,
2013-01-04 12:03:00,42.6,14.1,25.63,NW,319,0.0,0.0,31,0.00,,---,0.00,VWS V13.01,2013-01-04 19:03:00,
2013-01-04 12:08:00,43.3,14.0,25.63,NW,319,0.0,0.0,30,0.00,,---,0.00,VWS V13.01,2013-01-04 19:08:00,
2013-01-04 12:13:00,43.7,14.3,25.63,NW,319,0.0,0.0,30,0.00,,---,0.00,VWS V13.01,2013-01-04 19:13:00,
2013-01-04 12:18:00,44.4,14.9,25.63,NW,319,0.0,0.0,30,0.00,,---,0.00,VWS V13.01,2013-01-04 19:18:00,
2013-01-04 12:23:00,44.8,15.3,25.63,NW,319,0.0,0.0,30,0.00,,---,0.00,VWS V13.01,2013-01-04 19:23:00,
2013-01-04 12:28:00,45.1,14.8,25.63,NW,319,0.0,0.0,29,0.00,,---,0.00,VWS V13.01,2013-01-04 19:28:00,
2013-01-04 12:33:00,45.3,14.9,25.60,NW,319,0.0,0.0,29,0.00,,---,0.00,VWS V13.01,2013-01-04 19:33:00,
2013-01-04 12:38:00,46.0,14.8,25.60,NW,319,0.0,0.0,28,0.00,,---,0.00,VWS V13.01,2013-01-04 19:38:00,
2013-01-04 12:43:00,46.2,14.9,25.60,NW,319,0.0,0.0,28,0.00,,---,0.00,VWS V13.01,2013-01-04 19:43:00,
2013-01-04 12:48:00,46.0,14.8,25.60,NW,319,0.0,0.0,28,0.00,,---,0.00,VWS V13.01,2013-01-04 19:48:00,
2013-01-04 12:53:00,46.0,14.8,25.60,NW,319,0.0,0.0,28,0.00,,---,0.00,VWS V13.01,2013-01-04 19:53:00,
2013-01-04 12:58:00,46.4,15.1,25.60,NW,319,0.0,0.0,28,0.00,,---,0.00,VWS V13.01,2013-01-04 19:58:00,
2013-01-04 13:03:00,46.8,15.4,25.60,NW,319,0.0,0.0,28,0.00,,---,0.00,VWS V13.01,2013-01-04 20:03:00,
2013-01-04 13:08:00,46.6,15.2,25.60,NW,319,0.0,0.0,28,0.00,,---,0.00,VWS V13.01,2013-01-04 20:08:00,
2013-01-04 13:13:00,46.6,15.2,25.60,NW,319,0.0,0.0,28,0.00,,---,0.00,VWS V13.01,2013-01-04 20:13:00,
2013-01-04 13:18:00,46.4,15.1,25.60,NW,319,0.0,0.0,28,0.00,,---,0.00,VWS V13.01,2013-01-04 20:18:00,
2013-01-04 13:23:00,46.2,14.9,25.60,NW,319,0.0,0.0,28,0.00,,---,0.00,VWS V13.01,2013-01-04 20:23:00,
2013-01-04 13:28:00,46.4,14.2,25.60,NW,319,0.0,0.0,27,0.00,,---,0.00,VWS V13.01,2013-01-04 20:28:00,
2013-01-04 13:33:00,46.8,14.6,25.60,NW,319,0.0,0.0,27,0.00,,---,0.00,VWS V13.01,2013-01-04 20:33:00,
2013-01-04 13:38:00,46.9,14.7,25.60,NW,319,0.0,0.0,27,0.00,,---,0.00,VWS V13.01,2013-01-04 20:38:00,
2013-01-04 13:43:00,46.9,14.7,25.60,NW,319,0.0,0.0,27,0.00,,---,0.00,VWS V13.01,2013-01-04 20:43:00,
2013-01-04 13:48:00,46.6,14.4,25.60,NW,319,0.0,0.0,27,0.00,,---,0.00,VWS V13.01,2013-01-04 20:48:00,
2013-01-04 13:53:00,46.2,12.4,25.60,NW,319,0.0,0.0,25,0.00,,---,0.00,VWS V13.01,2013-01-04 20:53:00,
2013-01-04 13:58:00,46.2,14.1,25.60,NW,319,0.0,0.0,27,0.00,,---,0.00,VWS V13.01,2013-01-04 20:58:00,
2013-01-04 14:03:00,45.7,13.6,25.60,NW,319,0.0,0.0,27,0.00,,---,0.00,VWS V13.01,2013-01-04 21:03:00,
2013-01-04 14:08:00,45.7,14.5,25.60,NW,319,0.0,0.0,28,0.00,,---,0.00,VWS V13.01,2013-01-04 21:08:00,
2013-01-04 14:13:00,45.7,13.6,25.60,NW,319,0.0,0.0,27,0.00,,---,0.00,VWS V13.01,2013-01-04 21:13:00,
2013-01-04 14:18:00,46.0,14.8,25.60,NW,319,0.0,0.0,28,0.00,,---,0.00,VWS V13.01,2013-01-04 21:18:00,
2013-01-04 14:23:00,46.0,13.9,25.60,NW,319,0.0,0.0,27,0.00,,---,0.00,VWS V13.01,2013-01-04 21:23:00,
2013-01-04 14:28:00,45.7,14.5,25.60,NW,319,0.0,0.0,28,0.00,,---,0.00,VWS V13.01,2013-01-04 21:28:00,
2013-01-04 14:33:00,45.1,14.0,25.60,NW,319,0.0,0.0,28,0.00,,---,0.00,VWS V13.01,2013-01-04 21:33:00,
2013-01-04 14:38:00,45.1,13.2,25.60,NW,319,0.0,0.0,27,0.00,,---,0.00,VWS V13.01,2013-01-04 21:38:00,
2013-01-04 14:43:00,45.1,13.2,25.60,NW,319,0.0,0.0,27,0.00,,---,0.00,VWS V13.01,2013-01-04 21:43:00,
2013-01-04 14:48:00,45.3,13.3,25.60,NW,319,0.0,0.0,27,0.00,,---,0.00,VWS V13.01,2013-01-04 21:48:00,
2013-01-04 14:53:00,45.1,14.0,25.60,NW,319,0.0,0.0,28,0.00,,---,0.00,VWS V13.01,2013-01-04 21:53:00,
2013-01-04 14:58:00,44.8,12.9,25.60,NW,319,0.0,0.0,27,0.00,,---,0.00,VWS V13.01,2013-01-04 21:58:00,
2013-01-04 15:03:00,44.2,13.2,25.60,NW,319,0.0,0.0,28,0.00,,---,0.00,VWS V13.01,2013-01-04 22:03:00,
2013-01-04 15:08:00,43.7,13.5,25.60,NW,319,0.0,0.0,29,0.00,,---,0.00,VWS V13.01,2013-01-04 22:08:00,
2013-01-04 15:13:00,43.0,12.9,25.60,NW,319,0.0,0.0,29,0.00,,---,0.00,VWS V13.01,2013-01-04 22:13:00,
2013-01-04 15:18:00,43.0,12.1,25.60,NW,319,0.0,0.0,28,0.00,,---,0.00,VWS V13.01,2013-01-04 22:18:00,
2013-01-04 15:23:00,43.0,12.1,25.60,NW,319,0.0,0.0,28,0.00,,---,0.00,VWS V13.01,2013-01-04 22:23:00,
2013-01-04 15:28:00,42.4,10.0,25.60,NW,319,0.0,0.0,26,0.00,,---,0.00,VWS V13.01,2013-01-04 22:28:00,
2013-01-04 15:33:00,42.1,11.3,25.60,NW,319,0.0,0.0,28,0.00,,---,0.00,VWS V13.01,2013-01-04 22:33:00,
2013-01-04 15:38:00,41.7,9.4,25.60,NW,319,0.0,0.0,26,0.00,,---,0.00,VWS V13.01,2013-01-04 22:38:00,
2013-01-04 15:43:00,41.7,9.4,25.60,NW,319,0.0,0.0,26,0.00,,---,0.00,VWS V13.01,2013-01-04 22:43:00,
2013-01-04 15:48:00,41.5,10.9,25.60,NW,319,0.0,0.0,28,0.00,,---,0.00,VWS V13.01,2013-01-04 22:48:00,
2013-01-04 15:53:00,40.6,8.4,25.60,NW,319,0.0,0.0,26,0.00,,---,0.00,VWS V13.01,2013-01-04 22:53:00,
2013-01-04 15:58:00,39.9,10.2,25.60,NW,319,0.0,0.0,29,0.00,,---,0.00,VWS V13.01,2013-01-04 22:58:00,
2013-01-04 16:03:00,38.8,9.3,25.63,NW,319,0.0,0.0,29,0.00,,---,0.00,VWS V13.01,2013-01-04 23:03:00,
2013-01-04 16:08:00,37.9,13.4,25.63,NW,319,0.0,0.0,36,0.00,,---,0.00,VWS V13.01,2013-01-04 23:08:00,
2013-01-04 16:13:00,37.2,12.7,25.63,NW,319,0.0,0.0,36,0.00,,---,0.00,VWS V13.01,2013-01-04 23:13:00,
2013-01-04 16:18:00,36.1,12.4,25.63,NW,319,0.0,0.0,37,0.00,,---,0.00,VWS V13.01,2013-01-04 23:18:00,
2013-01-04 16:23:00,35.1,12.6,25.63,NW,319,0.0,0.0,39,0.00,,---,0.00,VWS V13.01,2013-01-04 23:23:00,
2013-01-04 16:28:00,34.0,13.3,25.63,NW,319,0.0,0.0,42,0.00,,---,0.00,VWS V13.01,2013-01-04 23:28:00,
2013-01-04 16:33:00,32.9,12.3,25.63,NW,319,0.0,0.0,42,0.00,,---,0.00,VWS V13.01,2013-01-04 23:33:00,
2013-01-04 16:38:00,31.3,10.9,25.63,NW,319,0.0,0.0,42,0.00,,---,0.00,VWS V13.01,2013-01-04 23:38:00,
2013-01-04 16:43:00,29.5,9.8,25.63,NW,319,0.0,0.0,43,0.00,,---,0.00,VWS V13.01,2013-01-04 23:43:00,
2013-01-04 16:48:00,28.9,9.3,25.63,NW,319,0.0,0.0,43,0.00,,---,0.00,VWS V13.01,2013-01-04 23:48:00,
2013-01-04 16:53:00,27.9,9.8,25.63,NW,319,0.0,0.0,46,0.00,,---,0.00,VWS V13.01,2013-01-04 23:53:00,
2013-01-04 16:58:00,27.0,9.9,25.63,NW,319,0.0,0.0,48,0.00,,---,0.00,VWS V13.01,2013-01-04 23:58:00,
2013-01-04 17:03:00,26.2,10.1,25.63,NW,319,0.0,0.0,50,0.00,,---,0.00,VWS V13.01,2013-01-05 00:03:00,
2013-01-04 17:08:00,25.7,10.1,25.63,NW,319,0.0,0.0,51,0.00,,---,0.00,VWS V13.01,2013-01-05 00:08:00,
2013-01-04 17:13:00,25.3,10.2,25.63,NW,319,0.0,0.0,52,0.00,,---,0.00,VWS V13.01,2013-01-05 00:13:00,
2013-01-04 17:18:00,24.6,9.5,25.63,NW,319,0.0,0.0,52,0.00,,---,0.00,VWS V13.01,2013-01-05 00:18:00,
2013-01-04 17:23:00,24.1,9.4,25.63,NW,319,0.0,0.0,53,0.00,,---,0.00,VWS V13.01,2013-01-05 00:23:00,
2013-01-04 17:28:00,23.9,10.5,25.63,NW,319,0.0,0.0,56,0.00,,---,0.00,VWS V13.01,2013-01-05 00:28:00,
2013-01-04 17:33:00,23.7,9.5,25.63,NW,319,0.0,0.0,54,0.00,,---,0.00,VWS V13.01,2013-01-05 00:33:00,
2013-01-04 17:38:00,23.5,9.4,25.63,NW,319,0.0,0.0,54,0.00,,---,0.00,VWS V13.01,2013-01-05 00:38:00,
2013-01-04 17:43:00,23.4,9.6,25.63,NW,319,0.0,0.0,55,0.00,,---,0.00,VWS V13.01,2013-01-05 00:43:00,
2013-01-04 17:48:00,23.0,9.2,25.63,NW,319,0.0,0.0,55,0.00,,---,0.00,VWS V13.01,2013-01-05 00:48:00,
2013-01-04 17:53:00,23.0,9.2,25.63,NW,319,0.0,0.0,55,0.00,,---,0.00,VWS V13.01,2013-01-05 00:53:00,
2013-01-04 17:58:00,23.4,9.6,25.63,NW,319,0.0,0.0,55,0.00,,---,0.00,VWS V13.01,2013-01-05 00:58:00,
2013-01-04 18:03:00,23.2,9.4,25.63,NW,319,0.0,0.0,55,0.00,,---,0.00,VWS V13.01,2013-01-05 01:03:00,
2013-01-04 18:08:00,22.6,9.3,25.63,NW,319,0.0,0.0,56,0.00,,---,0.00,VWS V13.01,2013-01-05 01:08:00,
2013-01-04 18:13:00,22.5,9.1,25.63,NW,319,0.0,0.0,56,0.00,,---,0.00,VWS V13.01,2013-01-05 01:13:00,
2013-01-04 18:18:00,22.3,9.0,25.63,NW,319,0.0,0.0,56,0.00,,---,0.00,VWS V13.01,2013-01-05 01:18:00,
2013-01-04 18:23:00,22.5,9.1,25.63,NW,319,0.0,0.0,56,0.00,,---,0.00,VWS V13.01,2013-01-05 01:23:00,
2013-01-04 18:28:00,22.6,8.9,25.63,NW,319,0.0,0.0,55,0.00,,---,0.00,VWS V13.01,2013-01-05 01:28:00,
2013-01-04 18:33:00,23.0,8.9,25.66,NW,319,0.0,0.0,54,0.00,,---,0.00,VWS V13.01,2013-01-05 01:33:00,
2013-01-04 18:38:00,23.5,9.4,25.66,NW,319,0.0,0.0,54,0.00,,---,0.00,VWS V13.01,2013-01-05 01:38:00,
2013-01-04 18:43:00,23.7,9.1,25.66,NW,319,0.0,0.0,53,0.00,,---,0.00,VWS V13.01,2013-01-05 01:43:00,
2013-01-04 18:48:00,23.4,8.4,25.63,NW,319,0.0,0.0,52,0.00,,---,0.00,VWS V13.01,2013-01-05 01:48:00,
2013-01-04 18:53:00,22.3,7.3,25.63,NW,319,0.0,0.0,52,0.00,,---,0.00,VWS V13.01,2013-01-05 01:53:00,
2013-01-04 18:58:00,21.9,7.8,25.63,NW,319,0.0,0.0,54,0.00,,---,0.00,VWS V13.01,2013-01-05 01:58:00,
2013-01-04 19:03:00,21.4,7.3,25.63,NW,319,0.0,0.0,54,0.00,,---,0.00,VWS V13.01,2013-01-05 02:03:00,
2013-01-04 19:08:00,20.5,6.5,25.63,NW,319,0.0,0.0,54,0.00,,---,0.00,VWS V13.01,2013-01-05 02:08:00,
2013-01-04 19:13:00,20.3,7.1,25.63,NW,319,0.0,0.0,56,0.00,,---,0.00,VWS V13.01,2013-01-05 02:13:00,
2013-01-04 19:18:00,20.5,7.3,25.63,NW,319,0.0,0.0,56,0.00,,---,0.00,VWS V13.01,2013-01-05 02:18:00,
2013-01-04 19:23:00,20.7,7.5,25.63,NW,319,0.0,0.0,56,0.00,,---,0.00,VWS V13.01,2013-01-05 02:23:00,
2013-01-04 19:28:00,21.0,7.8,25.63,NW,319,0.0,0.0,56,0.00,,---,0.00,VWS V13.01,2013-01-05 02:28:00,
2013-01-04 19:33:00,20.8,7.6,25.63,NW,319,0.0,0.0,56,0.00,,---,0.00,VWS V13.01,2013-01-05 02:33:00,
2013-01-04 19:38:00,20.8,7.6,25.63,NW,319,0.0,0.0,56,0.00,,---,0.00,VWS V13.01,2013-01-05 02:38:00,
2013-01-04 19:43:00,21.2,8.0,25.63,NW,319,0.0,0.0,56,0.00,,---,0.00,VWS V13.01,2013-01-05 02:43:00,
2013-01-04 19:48:00,21.6,7.9,25.63,NW,319,0.0,0.0,55,0.00,,---,0.00,VWS V13.01,2013-01-05 02:48:00,
2013-01-04 19:53:00,21.9,7.8,25.63,NW,319,0.0,0.0,54,0.00,,---,0.00,VWS V13.01,2013-01-05 02:53:00,
2013-01-04 19:58:00,21.9,7.4,25.63,NW,319,0.0,0.0,53,0.00,,---,0.00,VWS V13.01,2013-01-05 02:58:00,
2013-01-04 20:03:00,22.1,7.6,25.63,NW,319,0.0,0.0,53,0.00,,---,0.00,VWS V13.01,2013-01-05 03:03:00,
2013-01-04 20:08:00,22.1,7.6,25.63,NW,319,0.0,0.0,53,0.00,,---,0.00,VWS V13.01,2013-01-05 03:08:00,
2013-01-04 20:13:00,21.6,7.1,25.63,NW,319,0.0,0.0,53,0.00,,---,0.00,VWS V13.01,2013-01-05 03:13:00,
2013-01-04 20:18:00,21.4,6.9,25.63,NW,319,0.0,0.0,53,0.00,,---,0.00,VWS V13.01,2013-01-05 03:18:00,
2013-01-04 20:23:00,21.4,6.9,25.63,NW,319,0.0,0.0,53,0.00,,---,0.00,VWS V13.01,2013-01-05 03:23:00,
2013-01-04 20:28:00,21.4,6.9,25.63,NW,319,0.0,0.0,53,0.00,,---,0.00,VWS V13.01,2013-01-05 03:28:00,
2013-01-04 20:33:00,21.6,7.1,25.63,NW,319,0.0,0.0,53,0.00,,---,0.00,VWS V13.01,2013-01-05 03:33:00,
2013-01-04 20:38:00,21.6,7.1,25.63,NW,319,0.0,0.0,53,0.00,,---,0.00,VWS V13.01,2013-01-05 03:38:00,
2013-01-04 20:43:00,21.4,6.9,25.63,NW,319,0.0,0.0,53,0.00,,---,0.00,VWS V13.01,2013-01-05 03:43:00,
2013-01-04 20:48:00,21.2,6.8,25.63,NW,319,0.0,0.0,53,0.00,,---,0.00,VWS V13.01,2013-01-05 03:48:00,
2013-01-04 20:53:00,20.7,6.2,25.63,NW,319,0.0,0.0,53,0.00,,---,0.00,VWS V13.01,2013-01-05 03:53:00,
2013-01-04 20:58:00,20.7,6.7,25.63,NW,319,0.0,0.0,54,0.00,,---,0.00,VWS V13.01,2013-01-05 03:58:00,
2013-01-04 21:03:00,20.7,6.7,25.63,NW,319,0.0,0.0,54,0.00,,---,0.00,VWS V13.01,2013-01-05 04:03:00,
2013-01-04 21:08:00,20.5,6.5,25.63,NW,319,0.0,0.0,54,0.00,,---,0.00,VWS V13.01,2013-01-05 04:08:00,
2013-01-04 21:13:00,20.7,6.7,25.63,NW,319,0.0,0.0,54,0.00,,---,0.00,VWS V13.01,2013-01-05 04:13:00,
2013-01-04 21:18:00,20.5,6.5,25.63,NW,319,0.0,0.0,54,0.00,,---,0.00,VWS V13.01,2013-01-05 04:18:00,
2013-01-04 21:23:00,20.5,6.5,25.63,NW,319,0.0,0.0,54,0.00,,---,0.00,VWS V13.01,2013-01-05 04:23:00,
2013-01-04 21:28:00,20.5,6.5,25.63,NW,319,0.0,0.0,54,0.00,,---,0.00,VWS V13.01,2013-01-05 04:28:00,
2013-01-04 21:33:00,20.3,6.3,25.63,NW,319,0.0,0.0,54,0.00,,---,0.00,VWS V13.01,2013-01-05 04:33:00,
2013-01-04 21:38:00,20.3,6.3,25.63,NW,319,0.0,0.0,54,0.00,,---,0.00,VWS V13.01,2013-01-05 04:38:00,
2013-01-04 21:43:00,20.3,6.3,25.63,NW,319,0.0,0.0,54,0.00,,---,0.00,VWS V13.01,2013-01-05 04:43:00,
2013-01-04 21:48:00,20.1,6.2,25.63,NW,319,0.0,0.0,54,0.00,,---,0.00,VWS V13.01,2013-01-05 04:48:00,
2013-01-04 21:53:00,19.8,6.2,25.63,NW,319,0.0,0.0,55,0.00,,---,0.00,VWS V13.01,2013-01-05 04:53:00,
2013-01-04 21:58:00,20.1,6.6,25.63,NW,319,0.0,0.0,55,0.00,,---,0.00,VWS V13.01,2013-01-05 04:58:00,
2013-01-04 22:00:00,20.1,6.6,25.63,NW,319,0.0,0.0,55,0.00,,---,0.00,VWS V13.01,2013-01-05 05:00:00,
2013-01-04 22:03:00,20.1,6.2,25.63,NW,319,0.0,0.0,54,0.00,,---,0.00,VWS V13.01,2013-01-05 05:03:00,
2013-01-04 22:07:00,20.3,6.3,25.63,NW,319,0.0,0.0,54,0.00,,---,0.00,VWS V13.01,2013-01-05 05:07:00,
2013-01-04 22:12:00,20.3,6.3,25.63,NW,319,0.0,0.0,54,0.00,,---,0.00,VWS V13.01,2013-01-05 05:12:00,
2013-01-04 22:17:00,20.3,6.3,25.63,NW,319,0.0,0.0,54,0.00,,---,0.00,VWS V13.01,2013-01-05 05:17:00,
2013-01-04 22:22:00,20.3,5.9,25.63,NW,319,0.0,0.0,53,0.00,,---,0.00,VWS V13.01,2013-01-05 05:22:00,
2013-01-04 22:27:00,20.5,6.1,25.63,NW,319,0.0,0.0,53,0.00,,---,0.00,VWS V13.01,2013-01-05 05:27:00,
2013-01-04 22:33:00,20.3,5.9,25.63,NW,319,0.0,0.0,53,0.00,,---,0.00,VWS V13.01,2013-01-05 05:33:00,
2013-01-04 22:38:00,20.3,5.9,25.63,NW,319,0.0,0.0,53,0.00,,---,0.00,VWS V13.01,2013-01-05 05:38:00,
2013-01-04 22:43:00,20.1,5.7,25.63,NW,319,0.0,0.0,53,0.00,,---,0.00,VWS V13.01,2013-01-05 05:43:00,
2013-01-04 22:48:00,20.1,5.7,25.63,NW,319,0.0,0.0,53,0.00,,---,0.00,VWS V13.01,2013-01-05 05:48:00,
2013-01-04 22:53:00,19.9,5.6,25.63,NW,319,0.0,0.0,53,0.00,,---,0.00,VWS V13.01,2013-01-05 05:53:00,
2013-01-04 22:58:00,19.8,5.4,25.63,NW,319,0.0,0.0,53,0.00,,---,0.00,VWS V13.01,2013-01-05 05:58:00,
2013-01-04 23:03:00,19.8,5.4,25.63,NW,319,0.0,0.0,53,0.00,,---,0.00,VWS V13.01,2013-01-05 06:03:00,
2013-01-04 23:08:00,19.6,5.2,25.63,NW,319,0.0,0.0,53,0.00,,---,0.00,VWS V13.01,2013-01-05 06:08:00,
2013-01-04 23:13:00,19.6,5.2,25.63,NW,319,0.0,0.0,53,0.00,,---,0.00,VWS V13.01,2013-01-05 06:13:00,
2013-01-04 23:17:00,19.6,5.2,25.63,NW,319,0.0,0.0,53,0.00,,---,0.00,VWS V13.01,2013-01-05 06:17:00,
2013-01-04 23:22:00,19.6,5.2,25.63,NW,319,0.0,0.0,53,0.00,,---,0.00,VWS V13.01,2013-01-05 06:22:00,
2013-01-04 23:27:00,19.4,5.1,25.63,NW,319,0.0,0.0,53,0.00,,---,0.00,VWS V13.01,2013-01-05 06:27:00,
2013-01-04 23:32:00,19.4,5.1,25.63,NW,319,0.0,0.0,53,0.00,,---,0.00,VWS V13.01,2013-01-05 06:32:00,
2013-01-04 23:37:00,19.2,4.9,25.63,NW,319,0.0,0.0,53,0.00,,---,0.00,VWS V13.01,2013-01-05 06:37:00,
2013-01-04 23:42:00,19.0,4.7,25.63,NW,319,0.0,0.0,53,0.00,,---,0.00,VWS V13.01,2013-01-05 06:42:00,
2013-01-04 23:47:00,19.0,4.7,25.63,NW,319,0.0,0.0,53,0.00,,---,0.00,VWS V13.01,2013-01-05 06:47:00,
2013-01-04 23:52:00,18.9,4.6,25.63,NW,319,0.0,0.0,53,0.00,,---,0.00,VWS V13.01,2013-01-05 06:52:00,
2013-01-04 23:57:00,18.7,4.4,25.63,NW,319,0.0,0.0,53,0.00,,---,0.00,VWS V13.01,2013-01-05 06:57:00,